Flight Track Log - Related Links

Times and Time Zones

All times are in EDT time to prevent confusion due to time zone crossing. See the RPA3446 flight status page for this flight to view local times or setup timezone preferences in your user account.

Time Position Orientation Groundspeed Altitude Reporting Facility
EDT Latitude Longitude Course Direction KTS MPH feet Rate Location/Type
Fri 09:33:36 PM 39.8833 -75.2167 75° East 154 177 800  Level Philadelphia TRACON
Fri 09:36:00 PM 39.8167 -74.8789 90° East  Level FlightAware Approximate
Fri 09:36:06 PM 39.8472 -75.0186 103° East 252 290 5,900  Level New York Center
Fri 09:37:00 PM 39.7952 -74.7589 105° East  Level FlightAware Approximate
Fri 09:37:03 PM 39.8317 -74.9311 103° East 274 315 8,600  Level New York Center
Fri 09:38:00 PM 39.7954 -74.6394 75° East  Level FlightAware Approximate
Fri 09:38:05 PM 39.8125 -74.8244 103° East 287 330 11,000  Level New York Center
Fri 09:39:04 PM 39.7939 -74.6964 101° East 307 353 12,000 500 Climbing New York Center
Fri 09:40:05 PM 39.8058 -74.5864 82° East 331 381 12,000 496 Level New York Center
Fri 09:41:05 PM 39.8158 -74.4708 84° East 326 375 13,000 1,449 Climbing New York Center
Fri 09:43:03 PM 39.8769 -74.2461 70° East 333 383 16,300 1,743 Climbing Boston Center
Fri 09:44:04 PM 39.9339 -74.1447 54° Northeast 344 396 18,200 1,967 Climbing Boston Center
Fri 09:45:05 PM 39.9922 -74.0381 54° Northeast 358 412 20,300 1,918 Climbing Boston Center
Fri 09:46:06 PM 40.0525 -73.9294 54° Northeast 368 423 22,100 1,736 Climbing Boston Center
Fri 09:47:06 PM 40.1153 -73.8158 54° Northeast 382 440 23,800 1,574 Climbing Boston Center
Fri 09:48:08 PM 40.1806 -73.6983 54° Northeast 397 457 25,300 1,475 Climbing Boston Center
Fri 09:49:08 PM 40.2622 -73.6028 42° Northeast 392 451 26,800 1,438 Climbing Boston Center
Fri 09:50:09 PM 40.3514 -73.5172 36° Northeast 396 456 28,200 1,268 Climbing Boston Center
Fri 09:51:11 PM 40.4603 -73.4142 36° Northeast 402 463 29,400 1,082 Climbing Boston Center
Fri 09:52:11 PM 40.5536 -73.3236 36° Northeast 416 479 30,400 800 Climbing Boston Center
Fri 09:53:11 PM 40.6467 -73.2328 37° Northeast 417 480 31,000 290 Climbing Boston Center
Fri 09:54:15 PM 40.7383 -73.1450 36° Northeast 419 482 31,000  Level Boston Center
Fri 09:55:15 PM 40.8428 -73.0408 37° Northeast 420 483 31,000  Level Boston Center
Fri 09:56:16 PM 40.9367 -72.9514 36° Northeast 420 483 31,000  Level Boston Center
Fri 09:57:16 PM 41.0311 -72.8583 37° Northeast 422 486 31,000  Level Boston Center
Fri 09:58:19 PM 41.1244 -72.7653 37° Northeast 422 486 31,000  Level Boston Center
Fri 09:59:20 PM 41.2161 -72.6733 37° Northeast 417 480 31,000  Level Boston Center
Fri 10:00:21 PM 41.3019 -72.5494 47° Northeast 430 495 31,000  Level Boston Center
Fri 10:01:22 PM 41.3764 -72.4250 51° Northeast 430 495 31,000  Level Boston Center
Fri 10:02:23 PM 41.4622 -72.3181 43° Northeast 421 484 31,000  Level Boston Center
Fri 10:03:22 PM 41.5458 -72.2369 36° Northeast 415 478 31,000  Level Boston Center
Fri 10:04:26 PM 41.6550 -72.1292 36° Northeast 412 474 31,000  Level Boston Center
Fri 10:05:25 PM 41.7469 -72.0392 36° Northeast 410 472 31,000  Level Boston Center
Fri 10:06:28 PM 41.8389 -71.9492 36° Northeast 410 472 31,000  Level Boston Center
Fri 10:07:29 PM 41.9300 -71.8603 36° Northeast 410 472 31,000  Level Boston Center
Fri 10:08:29 PM 42.0206 -71.7686 37° Northeast 410 472 31,000  Level Boston Center
Fri 10:09:30 PM 42.1122 -71.6769 37° Northeast 410 472 31,000  Level Boston Center
Fri 10:10:30 PM 42.2031 -71.5867 36° Northeast 410 472 31,000  Level Boston Center
Fri 10:11:34 PM 42.2947 -71.4944 37° Northeast 410 472 31,000  Level Boston Center
Fri 10:12:34 PM 42.4011 -71.3861 37° Northeast 410 472 31,000  Level Boston Center
Fri 10:13:35 PM 42.4939 -71.2933 36° Northeast 411 473 31,000  Level Boston Center
Fri 10:14:35 PM 42.5858 -71.1994 37° Northeast 411 473 31,000  Level Boston Center
Fri 10:15:37 PM 42.6775 -71.1042 37° Northeast 412 474 31,000  Level Boston Center
Fri 10:16:37 PM 42.7703 -71.0114 36° Northeast 412 474 31,000  Level Boston Center
Fri 10:17:40 PM 42.8617 -70.9167 37° Northeast 412 474 31,000  Level Boston Center
Fri 10:18:41 PM 42.9544 -70.8203 37° Northeast 417 480 31,000  Level Boston Center
Fri 10:19:42 PM 43.0461 -70.7247 37° Northeast 417 480 31,000  Level Boston Center
Fri 10:20:43 PM 43.1383 -70.6297 37° Northeast 415 478 31,000  Level Boston Center
Fri 10:21:45 PM 43.2286 -70.5358 37° Northeast 414 476 31,000  Level Boston Center
Fri 10:22:45 PM 43.3200 -70.4433 36° Northeast 408 470 31,000  Level Boston Center
Fri 10:23:46 PM 43.4136 -70.3411 38° Northeast 409 471 31,000  Level Boston Center
Fri 10:24:46 PM 43.5042 -70.2436 38° Northeast 409 471 31,000 -99 Level Boston Center
Fri 10:25:47 PM 43.5947 -70.1497 37° Northeast 409 471 30,800 -1,113 Descending Boston Center
Fri 10:26:50 PM 43.6850 -70.0569 37° Northeast 406 467 28,700 -1,984 Descending Boston Center
Fri 10:27:51 PM 43.7692 -69.9653 38° Northeast 389 448 26,700 -1,967 Descending Boston Center
Fri 10:28:52 PM 43.8531 -69.8756 38° Northeast 382 440 24,700 -2,164 Descending Boston Center
Fri 10:29:53 PM 43.9503 -69.7714 38° Northeast 366 421 22,300 -2,281 Descending Boston Center
Fri 10:30:53 PM 44.0292 -69.6850 38° Northeast 362 417 20,100 -1,983 Descending Boston Center
Fri 10:31:54 PM 44.1069 -69.6014 38° Northeast 351 404 18,300 -1,672 Descending Boston Center
Fri 10:32:55 PM 44.1797 -69.5219 38° Northeast 339 390 16,700 -1,610 Descending Boston Center
Fri 10:33:57 PM 44.2511 -69.4444 38° Northeast 328 377 15,000 -1,659 Descending Boston Center
Fri 10:34:58 PM 44.3250 -69.3786 33° Northeast 316 364 13,300 -1,623 Descending Boston Center
Fri 10:35:59 PM 44.4014 -69.3206 28° Northeast 314 361 11,700 -1,475 Descending Boston Center
Fri 10:37:00 PM 44.4728 -69.2644 29° Northeast 297 342 10,300 -1,426 Descending Boston Center
Fri 10:38:01 PM 44.5403 -69.2117 29° Northeast 283 326 8,800 -1,537 Descending Boston Center
Fri 10:39:01 PM 44.6064 -69.1608 29° Northeast 277 319 7,200 -1,636 Descending Boston Center
Fri 10:40:02 PM 44.6686 -69.1111 30° Northeast 264 304 5,500 -1,770 Descending Boston Center
Fri 10:41:03 PM 44.7308 -69.0631 29° Northeast 258 297 3,600 -1,240 Descending Boston Center
Fri 10:42:03 PM 44.7917 -69.0153 29° Northeast 255 293 3,000 -750 Descending Boston Center
Fri 10:43:03 PM 44.8417 -68.9700 33° Northeast 187 215 2,100 -787 Descending Boston Center
Fri 10:44:05 PM 44.8594 -68.9175 64° Northeast 156 180 1,400 -683 Descending Boston Center
Fri 10:45:06 PM 44.8381 -68.8719 123° Southeast 144 166 700 -645 Descending Boston Center
Fri 10:46:06 PM 44.8161 -68.8392 133° Southeast 143 165 100 -600 Descending Boston Center

Login

Don't have an account? Register now (free) for customized features, flight alerts, and more!